TGW565 RPMD-WSSS
Flight info
| Callsign | TGW565 |
|---|---|
| Flight time | N/A |
| Altitude | 36000 |
| Route | DEWIN1D DEWIN W10 ZAM A341 VSN W461 BRU M646 TOMAN KARTO2A |
| Aircraft | A320/M-SDFGHIRWYZ/LB1 |
Departure
| Time | N/A |
|---|---|
| Airport | Francisco Bangoy International Airport (RPMD) |
Arrival
| Time | 2026-05-06 17:29 |
|---|---|
| Airport | Singapore Changi Airport (WSSS) |
| Time | Latitude | Longitude | Altitude | Speed | Heading |
|---|---|---|---|---|---|
| 2026-05-06 15:11 | 6.49431 | 120.35866 | 34644 ft | 404 kts | 255° |
| 2026-05-06 15:11 | 6.48725 | 120.33117 | 34808 ft | 404 kts | 255° |
| 2026-05-06 15:12 | 6.48023 | 120.30376 | 34972 ft | 404 kts | 255° |
| 2026-05-06 15:12 | 6.47320 | 120.27635 | 35136 ft | 404 kts | 255° |
| 2026-05-06 15:12 | 6.46629 | 120.24924 | 35301 ft | 404 kts | 255° |
| 2026-05-06 15:12 | 6.45929 | 120.22182 | 35468 ft | 404 kts | 255° |
| 2026-05-06 15:13 | 6.45228 | 120.19445 | 35640 ft | 404 kts | 255° |
| 2026-05-06 15:13 | 6.44525 | 120.16710 | 35806 ft | 403 kts | 255° |
| 2026-05-06 15:13 | 6.43823 | 120.13972 | 35975 ft | 403 kts | 255° |
| 2026-05-06 15:14 | 6.42420 | 120.08499 | 36017 ft | 411 kts | 255° |
| 2026-05-06 15:14 | 6.40984 | 120.02887 | 36015 ft | 415 kts | 255° |
| 2026-05-06 15:15 | 6.39538 | 119.97258 | 36014 ft | 415 kts | 255° |
| 2026-05-06 15:15 | 6.38098 | 119.91635 | 36017 ft | 415 kts | 255° |
| 2026-05-06 15:16 | 6.36666 | 119.86057 | 36019 ft | 415 kts | 255° |
| 2026-05-06 15:16 | 6.35226 | 119.80441 | 36018 ft | 415 kts | 255° |
| 2026-05-06 15:17 | 6.33779 | 119.74823 | 36018 ft | 415 kts | 255° |
| 2026-05-06 15:17 | 6.32579 | 119.70155 | 36021 ft | 415 kts | 255° |
| 2026-05-06 15:18 | 6.30884 | 119.63589 | 36022 ft | 415 kts | 255° |
| 2026-05-06 15:18 | 6.29456 | 119.57999 | 36019 ft | 415 kts | 255° |
| 2026-05-06 15:19 | 6.28012 | 119.52375 | 36020 ft | 415 kts | 254° |
| 2026-05-06 15:19 | 6.26799 | 119.47691 | 36023 ft | 419 kts | 254° |
| 2026-05-06 15:20 | 6.25067 | 119.41015 | 36021 ft | 429 kts | 254° |
| 2026-05-06 15:20 | 6.23819 | 119.36137 | 36026 ft | 437 kts | 255° |
| 2026-05-06 15:21 | 6.22295 | 119.30146 | 36024 ft | 447 kts | 255° |
| 2026-05-06 15:21 | 6.20738 | 119.24030 | 36024 ft | 456 kts | 255° |
| 2026-05-06 15:22 | 6.19157 | 119.17819 | 36023 ft | 464 kts | 255° |
| 2026-05-06 15:22 | 6.17542 | 119.11476 | 36023 ft | 471 kts | 255° |
| 2026-05-06 15:23 | 6.15919 | 119.05099 | 36023 ft | 476 kts | 255° |
| 2026-05-06 15:23 | 6.14268 | 118.98607 | 36023 ft | 480 kts | 255° |
| 2026-05-06 15:24 | 6.12615 | 118.92109 | 36027 ft | 482 kts | 255° |
| 2026-05-06 15:24 | 6.10937 | 118.85575 | 36026 ft | 482 kts | 254° |
| 2026-05-06 15:25 | 6.09223 | 118.79099 | 36026 ft | 482 kts | 254° |
| 2026-05-06 15:25 | 6.07486 | 118.72585 | 36029 ft | 483 kts | 254° |
| 2026-05-06 15:26 | 6.05753 | 118.66056 | 36029 ft | 483 kts | 254° |
| 2026-05-06 15:26 | 6.04041 | 118.59573 | 36026 ft | 483 kts | 254° |
| 2026-05-06 15:27 | 6.02314 | 118.53037 | 36025 ft | 483 kts | 254° |
| 2026-05-06 15:27 | 6.00611 | 118.46536 | 36030 ft | 483 kts | 254° |
| 2026-05-06 15:28 | 5.98904 | 118.39996 | 36028 ft | 484 kts | 254° |
| 2026-05-06 15:28 | 5.97192 | 118.33456 | 36023 ft | 484 kts | 254° |
| 2026-05-06 15:29 | 5.95476 | 118.26907 | 36017 ft | 484 kts | 254° |
| 2026-05-06 15:29 | 5.93769 | 118.20413 | 36015 ft | 484 kts | 254° |
| 2026-05-06 15:30 | 5.92049 | 118.13859 | 36008 ft | 484 kts | 254° |
| 2026-05-06 15:30 | 5.90335 | 118.07327 | 36006 ft | 484 kts | 254° |
| 2026-05-06 15:31 | 5.88427 | 118.00831 | 36006 ft | 484 kts | 251° |
| 2026-05-06 15:31 | 5.86324 | 117.94437 | 36011 ft | 484 kts | 251° |
| 2026-05-06 15:32 | 5.83180 | 117.84786 | 36018 ft | 484 kts | 251° |
| 2026-05-06 15:32 | 5.81154 | 117.78323 | 36021 ft | 484 kts | 252° |
| 2026-05-06 15:33 | 5.79134 | 117.71852 | 36024 ft | 485 kts | 251° |
| 2026-05-06 15:33 | 5.77107 | 117.65434 | 36024 ft | 485 kts | 251° |
| 2026-05-06 15:34 | 5.75055 | 117.58974 | 36028 ft | 485 kts | 251° |
| 2026-05-06 15:34 | 5.73023 | 117.52510 | 36027 ft | 485 kts | 252° |
| 2026-05-06 15:35 | 5.70997 | 117.46029 | 36024 ft | 485 kts | 252° |
| 2026-05-06 15:35 | 5.68988 | 117.39602 | 36025 ft | 486 kts | 252° |
| 2026-05-06 15:36 | 5.66960 | 117.33113 | 36027 ft | 486 kts | 252° |
| 2026-05-06 15:36 | 5.64939 | 117.26674 | 36030 ft | 486 kts | 252° |
| 2026-05-06 15:37 | 5.62851 | 117.20179 | 36026 ft | 487 kts | 251° |
| 2026-05-06 15:37 | 5.60747 | 117.13737 | 36028 ft | 487 kts | 251° |
| 2026-05-06 15:38 | 5.58644 | 117.07263 | 36032 ft | 488 kts | 251° |
| 2026-05-06 15:38 | 5.56543 | 117.00778 | 36033 ft | 488 kts | 251° |
| 2026-05-06 15:39 | 5.54448 | 116.94332 | 36036 ft | 488 kts | 251° |
| 2026-05-06 15:39 | 5.52332 | 116.87850 | 36039 ft | 488 kts | 251° |
| 2026-05-06 15:40 | 5.50221 | 116.81367 | 36040 ft | 488 kts | 251° |
| 2026-05-06 15:40 | 5.48157 | 116.74919 | 36044 ft | 488 kts | 252° |
| 2026-05-06 15:41 | 5.46112 | 116.68425 | 36041 ft | 488 kts | 252° |
| 2026-05-06 15:41 | 5.44065 | 116.61925 | 36039 ft | 488 kts | 252° |
| 2026-05-06 15:42 | 5.42003 | 116.55420 | 36036 ft | 489 kts | 251° |
| 2026-05-06 15:42 | 5.39907 | 116.48974 | 36032 ft | 489 kts | 251° |
| 2026-05-06 15:43 | 5.37783 | 116.42488 | 36029 ft | 489 kts | 251° |
| 2026-05-06 15:43 | 5.35657 | 116.35984 | 36028 ft | 490 kts | 251° |
| 2026-05-06 15:44 | 5.33543 | 116.29487 | 36027 ft | 490 kts | 251° |
| 2026-05-06 15:44 | 5.31435 | 116.23015 | 36023 ft | 490 kts | 251° |
| 2026-05-06 15:45 | 5.29312 | 116.16503 | 36024 ft | 490 kts | 251° |
| 2026-05-06 15:45 | 5.27184 | 116.09982 | 36023 ft | 491 kts | 251° |
| 2026-05-06 15:46 | 5.25078 | 116.03495 | 36021 ft | 491 kts | 251° |
| 2026-05-06 15:46 | 5.22943 | 115.96960 | 36020 ft | 491 kts | 251° |
| 2026-05-06 15:47 | 5.20826 | 115.90488 | 36019 ft | 490 kts | 251° |
| 2026-05-06 15:47 | 5.18701 | 115.83968 | 36023 ft | 490 kts | 251° |
| 2026-05-06 15:48 | 5.16592 | 115.77499 | 36018 ft | 490 kts | 251° |
| 2026-05-06 15:48 | 5.14464 | 115.70992 | 36020 ft | 490 kts | 251° |
| 2026-05-06 15:49 | 5.12336 | 115.64497 | 36022 ft | 490 kts | 251° |
| 2026-05-06 15:49 | 5.10224 | 115.58032 | 36022 ft | 490 kts | 251° |
| 2026-05-06 15:50 | 5.08100 | 115.51522 | 36021 ft | 490 kts | 251° |
| 2026-05-06 15:50 | 5.05974 | 115.45016 | 36018 ft | 490 kts | 251° |
| 2026-05-06 15:51 | 5.03855 | 115.38532 | 36016 ft | 491 kts | 251° |
| 2026-05-06 15:51 | 5.01717 | 115.32013 | 36016 ft | 491 kts | 251° |
| 2026-05-06 15:52 | 4.99593 | 115.25533 | 36016 ft | 492 kts | 251° |
| 2026-05-06 15:52 | 4.97454 | 115.19005 | 36027 ft | 492 kts | 251° |
| 2026-05-06 15:53 | 4.95311 | 115.12460 | 36030 ft | 492 kts | 251° |
| 2026-05-06 15:53 | 4.93179 | 115.05968 | 36033 ft | 493 kts | 251° |
| 2026-05-06 15:54 | 4.91034 | 114.99433 | 36035 ft | 493 kts | 251° |
| 2026-05-06 15:54 | 4.88906 | 114.92936 | 36034 ft | 492 kts | 251° |
| 2026-05-06 15:55 | 4.86747 | 114.86420 | 36034 ft | 492 kts | 250° |
| 2026-05-06 15:55 | 4.84349 | 114.79993 | 36032 ft | 491 kts | 248° |
| 2026-05-06 15:56 | 4.81847 | 114.73666 | 36031 ft | 490 kts | 248° |
| 2026-05-06 15:56 | 4.79365 | 114.67280 | 36026 ft | 490 kts | 249° |
| 2026-05-06 15:57 | 4.76942 | 114.60882 | 36023 ft | 490 kts | 249° |
| 2026-05-06 15:57 | 4.74549 | 114.54531 | 36023 ft | 490 kts | 249° |
| 2026-05-06 15:58 | 4.72129 | 114.48136 | 36023 ft | 489 kts | 249° |
| 2026-05-06 15:58 | 4.69702 | 114.41750 | 36021 ft | 489 kts | 249° |
| 2026-05-06 15:59 | 4.67274 | 114.35371 | 36020 ft | 489 kts | 249° |
| 2026-05-06 15:59 | 4.64854 | 114.29028 | 36021 ft | 489 kts | 249° |
| 2026-05-06 16:00 | 4.62426 | 114.22642 | 36020 ft | 490 kts | 249° |
| 2026-05-06 16:00 | 4.60013 | 114.16302 | 36025 ft | 490 kts | 249° |
| 2026-05-06 16:01 | 4.57578 | 114.09907 | 36024 ft | 490 kts | 249° |
| 2026-05-06 16:01 | 4.55117 | 114.03517 | 36027 ft | 491 kts | 248° |
| 2026-05-06 16:02 | 4.52645 | 113.97159 | 36031 ft | 491 kts | 248° |
| 2026-05-06 16:02 | 4.50161 | 113.90771 | 36030 ft | 492 kts | 248° |
| 2026-05-06 16:03 | 4.47699 | 113.84407 | 36026 ft | 492 kts | 248° |
| 2026-05-06 16:03 | 4.45221 | 113.77994 | 36025 ft | 492 kts | 248° |
| 2026-05-06 16:04 | 4.42742 | 113.71597 | 36021 ft | 492 kts | 248° |
| 2026-05-06 16:04 | 4.40267 | 113.65225 | 36021 ft | 493 kts | 248° |
| 2026-05-06 16:05 | 4.37798 | 113.58812 | 36021 ft | 492 kts | 248° |
| 2026-05-06 16:05 | 4.35335 | 113.52397 | 36020 ft | 493 kts | 248° |
| 2026-05-06 16:06 | 4.32889 | 113.46019 | 36018 ft | 493 kts | 248° |
| 2026-05-06 16:06 | 4.30434 | 113.39590 | 36017 ft | 493 kts | 248° |
| 2026-05-06 16:07 | 4.27964 | 113.33177 | 36015 ft | 493 kts | 248° |
| 2026-05-06 16:07 | 4.25492 | 113.26769 | 36015 ft | 493 kts | 248° |
| 2026-05-06 16:08 | 4.23041 | 113.20377 | 36016 ft | 494 kts | 248° |
| 2026-05-06 16:08 | 4.20569 | 113.13939 | 36016 ft | 494 kts | 248° |
| 2026-05-06 16:09 | 4.18116 | 113.07552 | 36016 ft | 494 kts | 248° |
| 2026-05-06 16:09 | 4.15632 | 113.01122 | 36016 ft | 494 kts | 248° |
| 2026-05-06 16:10 | 4.13149 | 112.94694 | 36013 ft | 494 kts | 248° |
| 2026-05-06 16:10 | 4.10696 | 112.88305 | 36011 ft | 494 kts | 248° |
| 2026-05-06 16:11 | 4.08218 | 112.81867 | 36014 ft | 494 kts | 248° |
| 2026-05-06 16:11 | 4.05738 | 112.75453 | 36013 ft | 494 kts | 248° |
| 2026-05-06 16:12 | 4.03270 | 112.69061 | 36014 ft | 494 kts | 248° |
| 2026-05-06 16:12 | 4.01216 | 112.63718 | 36012 ft | 494 kts | 248° |
| 2026-05-06 16:13 | 3.98756 | 112.57294 | 36011 ft | 494 kts | 248° |
| 2026-05-06 16:13 | 3.95894 | 112.49827 | 36011 ft | 494 kts | 248° |
| 2026-05-06 16:14 | 3.93842 | 112.44485 | 36013 ft | 493 kts | 248° |
| 2026-05-06 16:14 | 3.91375 | 112.38060 | 36013 ft | 494 kts | 248° |
| 2026-05-06 16:15 | 3.88502 | 112.30589 | 36009 ft | 494 kts | 248° |
| 2026-05-06 16:15 | 3.86452 | 112.25243 | 36008 ft | 494 kts | 248° |
| 2026-05-06 16:16 | 3.83977 | 112.18821 | 36009 ft | 494 kts | 248° |
| 2026-05-06 16:16 | 3.81510 | 112.12434 | 36012 ft | 494 kts | 248° |
| 2026-05-06 16:17 | 3.79043 | 112.06023 | 36010 ft | 494 kts | 248° |
| 2026-05-06 16:17 | 3.76572 | 111.99596 | 36011 ft | 494 kts | 248° |
| 2026-05-06 16:18 | 3.74119 | 111.93216 | 36007 ft | 494 kts | 248° |
| 2026-05-06 16:18 | 3.71649 | 111.86787 | 36008 ft | 493 kts | 248° |
| 2026-05-06 16:19 | 3.69176 | 111.80364 | 36009 ft | 493 kts | 248° |
| 2026-05-06 16:19 | 3.66724 | 111.73987 | 36009 ft | 493 kts | 248° |
| 2026-05-06 16:20 | 3.64251 | 111.67570 | 36008 ft | 493 kts | 248° |
| 2026-05-06 16:20 | 3.61789 | 111.61188 | 36007 ft | 493 kts | 248° |
| 2026-05-06 16:21 | 3.59318 | 111.54778 | 36008 ft | 493 kts | 248° |
| 2026-05-06 16:21 | 3.56836 | 111.48357 | 36006 ft | 493 kts | 248° |
| 2026-05-06 16:22 | 3.54376 | 111.41983 | 36012 ft | 493 kts | 248° |
| 2026-05-06 16:22 | 3.51899 | 111.35553 | 36006 ft | 493 kts | 248° |
| 2026-05-06 16:23 | 3.49425 | 111.29150 | 36005 ft | 493 kts | 248° |
| 2026-05-06 16:23 | 3.46960 | 111.22772 | 36005 ft | 493 kts | 248° |
| 2026-05-06 16:24 | 3.44489 | 111.16351 | 36007 ft | 493 kts | 248° |
| 2026-05-06 16:24 | 3.42014 | 111.09936 | 36007 ft | 493 kts | 248° |
| 2026-05-06 16:25 | 3.39535 | 111.03517 | 36007 ft | 494 kts | 248° |
| 2026-05-06 16:25 | 3.37071 | 110.97142 | 36007 ft | 494 kts | 248° |
| 2026-05-06 16:26 | 3.34590 | 110.90716 | 36008 ft | 494 kts | 248° |
| 2026-05-06 16:26 | 3.32118 | 110.84338 | 36006 ft | 494 kts | 248° |
| 2026-05-06 16:27 | 3.29631 | 110.77917 | 36009 ft | 494 kts | 248° |
| 2026-05-06 16:27 | 3.27161 | 110.71494 | 36010 ft | 494 kts | 248° |
| 2026-05-06 16:28 | 3.24702 | 110.65097 | 36007 ft | 494 kts | 248° |
| 2026-05-06 16:28 | 3.22209 | 110.58664 | 36009 ft | 494 kts | 248° |
| 2026-05-06 16:29 | 3.19735 | 110.52282 | 36009 ft | 494 kts | 248° |
| 2026-05-06 16:29 | 3.17251 | 110.45855 | 36010 ft | 494 kts | 248° |
| 2026-05-06 16:30 | 3.15185 | 110.40509 | 36009 ft | 494 kts | 248° |
| 2026-05-06 16:30 | 3.12294 | 110.33056 | 36007 ft | 494 kts | 248° |
| 2026-05-06 16:31 | 3.09809 | 110.26638 | 36009 ft | 494 kts | 248° |
| 2026-05-06 16:31 | 3.07329 | 110.20224 | 36007 ft | 493 kts | 248° |
| 2026-05-06 16:32 | 3.04857 | 110.13855 | 36010 ft | 493 kts | 248° |
| 2026-05-06 16:32 | 3.02376 | 110.07443 | 36007 ft | 493 kts | 248° |
| 2026-05-06 16:33 | 2.99913 | 110.01086 | 36009 ft | 493 kts | 248° |
| 2026-05-06 16:34 | 2.96199 | 109.91493 | 36011 ft | 493 kts | 248° |
| 2026-05-06 16:34 | 2.93721 | 109.85095 | 36008 ft | 492 kts | 248° |
| 2026-05-06 16:35 | 2.91244 | 109.78707 | 36011 ft | 492 kts | 248° |
| 2026-05-06 16:35 | 2.88776 | 109.72346 | 36008 ft | 492 kts | 248° |
| 2026-05-06 16:36 | 2.86290 | 109.65947 | 36004 ft | 492 kts | 248° |
| 2026-05-06 16:36 | 2.83829 | 109.59593 | 36006 ft | 492 kts | 248° |
| 2026-05-06 16:37 | 2.81346 | 109.53198 | 36009 ft | 492 kts | 248° |
| 2026-05-06 16:37 | 2.78861 | 109.46816 | 36011 ft | 492 kts | 248° |
| 2026-05-06 16:38 | 2.76380 | 109.40408 | 36006 ft | 492 kts | 248° |
| 2026-05-06 16:38 | 2.73923 | 109.34062 | 36007 ft | 492 kts | 248° |
| 2026-05-06 16:39 | 2.71429 | 109.27669 | 36008 ft | 492 kts | 248° |
| 2026-05-06 16:39 | 2.68963 | 109.21324 | 36012 ft | 492 kts | 248° |
| 2026-05-06 16:40 | 2.66482 | 109.14923 | 36009 ft | 492 kts | 248° |
| 2026-05-06 16:40 | 2.64005 | 109.08533 | 36010 ft | 492 kts | 248° |
| 2026-05-06 16:41 | 2.61529 | 109.02186 | 36012 ft | 492 kts | 248° |
| 2026-05-06 16:41 | 2.59048 | 108.95802 | 36012 ft | 492 kts | 248° |
| 2026-05-06 16:42 | 2.56566 | 108.89416 | 36013 ft | 492 kts | 248° |
| 2026-05-06 16:42 | 2.54114 | 108.83053 | 36011 ft | 492 kts | 248° |
| 2026-05-06 16:43 | 2.51651 | 108.76646 | 36009 ft | 492 kts | 248° |
| 2026-05-06 16:43 | 2.49208 | 108.70279 | 36008 ft | 492 kts | 248° |
| 2026-05-06 16:44 | 2.46742 | 108.63875 | 36009 ft | 492 kts | 248° |
| 2026-05-06 16:44 | 2.44272 | 108.57476 | 36014 ft | 492 kts | 248° |
| 2026-05-06 16:45 | 2.41820 | 108.51120 | 36005 ft | 493 kts | 248° |
| 2026-05-06 16:45 | 2.39344 | 108.44721 | 36014 ft | 493 kts | 248° |
| 2026-05-06 16:46 | 2.36870 | 108.38331 | 36010 ft | 493 kts | 248° |
| 2026-05-06 16:46 | 2.34404 | 108.31935 | 36012 ft | 493 kts | 248° |
| 2026-05-06 16:47 | 2.31956 | 108.25571 | 36011 ft | 493 kts | 248° |
| 2026-05-06 16:47 | 2.29486 | 108.19172 | 36013 ft | 493 kts | 248° |
| 2026-05-06 16:48 | 2.27013 | 108.12766 | 36008 ft | 493 kts | 248° |
| 2026-05-06 16:48 | 2.24555 | 108.06408 | 36010 ft | 492 kts | 248° |
| 2026-05-06 16:49 | 2.22085 | 108.00009 | 36012 ft | 492 kts | 248° |
| 2026-05-06 16:49 | 2.19631 | 107.93653 | 36009 ft | 492 kts | 248° |
| 2026-05-06 16:50 | 2.17161 | 107.87257 | 36009 ft | 493 kts | 248° |
| 2026-05-06 16:50 | 2.14685 | 107.80868 | 36010 ft | 492 kts | 248° |
| 2026-05-06 16:51 | 2.12197 | 107.74477 | 36006 ft | 492 kts | 248° |
| 2026-05-06 16:51 | 2.10971 | 107.71333 | 35852 ft | 492 kts | 248° |
| 2026-05-06 16:51 | 2.09723 | 107.68135 | 35898 ft | 493 kts | 248° |
| 2026-05-06 16:52 | 2.07234 | 107.61776 | 35893 ft | 493 kts | 248° |
| 2026-05-06 16:52 | 2.04745 | 107.55376 | 35892 ft | 493 kts | 248° |
| 2026-05-06 16:53 | 2.02269 | 107.49023 | 35893 ft | 493 kts | 248° |
| 2026-05-06 16:53 | 1.99774 | 107.42615 | 35891 ft | 493 kts | 248° |
| 2026-05-06 16:54 | 1.97312 | 107.36262 | 35894 ft | 493 kts | 249° |
| 2026-05-06 16:54 | 1.94847 | 107.29855 | 35894 ft | 492 kts | 249° |
| 2026-05-06 16:55 | 1.92374 | 107.23451 | 35893 ft | 492 kts | 248° |
| 2026-05-06 16:55 | 1.89917 | 107.17097 | 35893 ft | 492 kts | 249° |
| 2026-05-06 16:56 | 1.87447 | 107.10705 | 35893 ft | 492 kts | 248° |
| 2026-05-06 16:56 | 1.84986 | 107.04364 | 35893 ft | 492 kts | 248° |
| 2026-05-06 16:57 | 1.82511 | 106.97964 | 35893 ft | 492 kts | 248° |
| 2026-05-06 16:57 | 1.80062 | 106.91617 | 35891 ft | 491 kts | 248° |
| 2026-05-06 16:58 | 1.77593 | 106.85228 | 35893 ft | 491 kts | 248° |
| 2026-05-06 16:58 | 1.75126 | 106.78855 | 35891 ft | 491 kts | 248° |
| 2026-05-06 16:59 | 1.72675 | 106.72519 | 35893 ft | 491 kts | 248° |
| 2026-05-06 16:59 | 1.70212 | 106.66151 | 35896 ft | 491 kts | 248° |
| 2026-05-06 17:00 | 1.67747 | 106.59783 | 35896 ft | 491 kts | 248° |
| 2026-05-06 17:00 | 1.65272 | 106.53426 | 35896 ft | 491 kts | 248° |
| 2026-05-06 17:01 | 1.62818 | 106.47096 | 35893 ft | 491 kts | 248° |
| 2026-05-06 17:01 | 1.60353 | 106.40723 | 35893 ft | 490 kts | 248° |
| 2026-05-06 17:02 | 1.57884 | 106.34364 | 35891 ft | 490 kts | 248° |
| 2026-05-06 17:02 | 1.55423 | 106.28047 | 35892 ft | 490 kts | 248° |
| 2026-05-06 17:03 | 1.52956 | 106.21677 | 35894 ft | 490 kts | 249° |
| 2026-05-06 17:03 | 1.50508 | 106.15348 | 35891 ft | 490 kts | 248° |
| 2026-05-06 17:04 | 1.48043 | 106.09000 | 35888 ft | 490 kts | 248° |
| 2026-05-06 17:04 | 1.45603 | 106.02699 | 35897 ft | 485 kts | 248° |
| 2026-05-06 17:05 | 1.43148 | 105.96402 | 35898 ft | 485 kts | 248° |
| 2026-05-06 17:05 | 1.41914 | 105.93253 | 35721 ft | 485 kts | 248° |
| 2026-05-06 17:05 | 1.40693 | 105.90133 | 35561 ft | 482 kts | 248° |
| 2026-05-06 17:05 | 1.39490 | 105.87041 | 35321 ft | 482 kts | 248° |
| 2026-05-06 17:06 | 1.38284 | 105.83926 | 34775 ft | 477 kts | 249° |
| 2026-05-06 17:06 | 1.37086 | 105.80849 | 34243 ft | 473 kts | 246° |
| 2026-05-06 17:06 | 1.35567 | 105.77944 | 33683 ft | 469 kts | 236° |
| 2026-05-06 17:06 | 1.33679 | 105.75359 | 33135 ft | 464 kts | 232° |
| 2026-05-06 17:07 | 1.31710 | 105.72808 | 32588 ft | 461 kts | 232° |
| 2026-05-06 17:07 | 1.29764 | 105.70275 | 32036 ft | 458 kts | 232° |
| 2026-05-06 17:07 | 1.27834 | 105.67756 | 31463 ft | 456 kts | 232° |
| 2026-05-06 17:07 | 1.25912 | 105.65241 | 30902 ft | 453 kts | 232° |
| 2026-05-06 17:08 | 1.23997 | 105.62733 | 30334 ft | 452 kts | 232° |
| 2026-05-06 17:08 | 1.22104 | 105.60231 | 29733 ft | 450 kts | 234° |
| 2026-05-06 17:08 | 1.20552 | 105.57561 | 29150 ft | 451 kts | 245° |
| 2026-05-06 17:08 | 1.19445 | 105.54544 | 28570 ft | 474 kts | 255° |
| 2026-05-06 17:09 | 1.19004 | 105.52379 | 28161 ft | 480 kts | 263° |
| 2026-05-06 17:09 | 1.18783 | 105.47946 | 27359 ft | 474 kts | 269° |
| 2026-05-06 17:09 | 1.18708 | 105.44699 | 26769 ft | 470 kts | 269° |
| 2026-05-06 17:09 | 1.18627 | 105.41438 | 26181 ft | 466 kts | 269° |
| 2026-05-06 17:10 | 1.18544 | 105.38208 | 25603 ft | 462 kts | 269° |
| 2026-05-06 17:10 | 1.18461 | 105.35051 | 25043 ft | 458 kts | 269° |
| 2026-05-06 17:10 | 1.18376 | 105.31873 | 24496 ft | 455 kts | 269° |
| 2026-05-06 17:10 | 1.18293 | 105.28721 | 23957 ft | 451 kts | 269° |
| 2026-05-06 17:11 | 1.18213 | 105.25601 | 23439 ft | 448 kts | 269° |
| 2026-05-06 17:11 | 1.18132 | 105.22497 | 22873 ft | 444 kts | 269° |
| 2026-05-06 17:11 | 1.18079 | 105.20461 | 22540 ft | 442 kts | 269° |
| 2026-05-06 17:11 | 1.17974 | 105.16409 | 21921 ft | 436 kts | 269° |
| 2026-05-06 17:12 | 1.17896 | 105.13378 | 21799 ft | 437 kts | 269° |
| 2026-05-06 17:12 | 1.17843 | 105.11325 | 21675 ft | 436 kts | 269° |
| 2026-05-06 17:12 | 1.17747 | 105.07315 | 20955 ft | 437 kts | 269° |
| 2026-05-06 17:12 | 1.17704 | 105.05266 | 20496 ft | 436 kts | 269° |
| 2026-05-06 17:13 | 1.17644 | 105.02250 | 19866 ft | 433 kts | 269° |
| 2026-05-06 17:13 | 1.17564 | 104.98268 | 19015 ft | 431 kts | 269° |
| 2026-05-06 17:13 | 1.17524 | 104.96288 | 18584 ft | 430 kts | 269° |
| 2026-05-06 17:13 | 1.17464 | 104.93308 | 17921 ft | 429 kts | 269° |
| 2026-05-06 17:14 | 1.17402 | 104.90328 | 17248 ft | 427 kts | 269° |
| 2026-05-06 17:14 | 1.17338 | 104.87364 | 16634 ft | 424 kts | 269° |
| 2026-05-06 17:14 | 1.17273 | 104.84426 | 16035 ft | 421 kts | 269° |
| 2026-05-06 17:14 | 1.17211 | 104.81553 | 15891 ft | 404 kts | 269° |
| 2026-05-06 17:15 | 1.17151 | 104.78820 | 15700 ft | 395 kts | 269° |
| 2026-05-06 17:15 | 1.17084 | 104.76080 | 15331 ft | 393 kts | 268° |
| 2026-05-06 17:15 | 1.17012 | 104.73347 | 14990 ft | 391 kts | 268° |
| 2026-05-06 17:15 | 1.16940 | 104.70626 | 14647 ft | 389 kts | 268° |
| 2026-05-06 17:16 | 1.16870 | 104.67963 | 14313 ft | 387 kts | 268° |
| 2026-05-06 17:16 | 1.16800 | 104.65274 | 13975 ft | 385 kts | 268° |
| 2026-05-06 17:16 | 1.16732 | 104.62603 | 13633 ft | 384 kts | 268° |
| 2026-05-06 17:16 | 1.16665 | 104.59946 | 13277 ft | 381 kts | 268° |
| 2026-05-06 17:17 | 1.16601 | 104.57300 | 12945 ft | 379 kts | 268° |
| 2026-05-06 17:17 | 1.16537 | 104.54699 | 12703 ft | 377 kts | 268° |
| 2026-05-06 17:17 | 1.16470 | 104.52081 | 12398 ft | 375 kts | 268° |
| 2026-05-06 17:17 | 1.16403 | 104.49480 | 12071 ft | 373 kts | 268° |
| 2026-05-06 17:18 | 1.16338 | 104.46893 | 11748 ft | 370 kts | 268° |
| 2026-05-06 17:18 | 1.16277 | 104.44357 | 11427 ft | 368 kts | 268° |
| 2026-05-06 17:18 | 1.16215 | 104.41793 | 11106 ft | 366 kts | 268° |
| 2026-05-06 17:18 | 1.16143 | 104.39257 | 10785 ft | 364 kts | 267° |
| 2026-05-06 17:19 | 1.15998 | 104.36771 | 10471 ft | 361 kts | 265° |
| 2026-05-06 17:19 | 1.15790 | 104.34270 | 10156 ft | 359 kts | 264° |
| 2026-05-06 17:19 | 1.15553 | 104.31795 | 9847 ft | 357 kts | 264° |
| 2026-05-06 17:19 | 1.15314 | 104.29332 | 9511 ft | 354 kts | 264° |
| 2026-05-06 17:20 | 1.15085 | 104.26877 | 9206 ft | 353 kts | 264° |
| 2026-05-06 17:20 | 1.14868 | 104.24442 | 8899 ft | 351 kts | 264° |
| 2026-05-06 17:20 | 1.14658 | 104.22017 | 8597 ft | 349 kts | 265° |
| 2026-05-06 17:20 | 1.14464 | 104.19631 | 8295 ft | 348 kts | 265° |
| 2026-05-06 17:21 | 1.14289 | 104.17224 | 7994 ft | 346 kts | 265° |
| 2026-05-06 17:21 | 1.14123 | 104.14830 | 7691 ft | 344 kts | 265° |
| 2026-05-06 17:21 | 1.13958 | 104.12448 | 7390 ft | 343 kts | 265° |
| 2026-05-06 17:21 | 1.13794 | 104.10075 | 7092 ft | 341 kts | 266° |
| 2026-05-06 17:22 | 1.13631 | 104.07723 | 6791 ft | 334 kts | 266° |
| 2026-05-06 17:22 | 1.13470 | 104.05442 | 6504 ft | 323 kts | 265° |
| 2026-05-06 17:22 | 1.13317 | 104.03299 | 6241 ft | 302 kts | 265° |
| 2026-05-06 17:22 | 1.13173 | 104.01290 | 6128 ft | 278 kts | 265° |
| 2026-05-06 17:23 | 1.13037 | 103.99432 | 6020 ft | 262 kts | 264° |
| 2026-05-06 17:23 | 1.12740 | 103.97656 | 5781 ft | 257 kts | 258° |
| 2026-05-06 17:23 | 1.12375 | 103.95915 | 5506 ft | 254 kts | 257° |
| 2026-05-06 17:23 | 1.12173 | 103.94177 | 5015 ft | 260 kts | 276° |
| 2026-05-06 17:24 | 1.12689 | 103.92450 | 4521 ft | 265 kts | 300° |
| 2026-05-06 17:24 | 1.13931 | 103.91067 | 4062 ft | 269 kts | 326° |
| 2026-05-06 17:24 | 1.15628 | 103.90367 | 3840 ft | 263 kts | 351° |
| 2026-05-06 17:24 | 1.17425 | 103.90422 | 3575 ft | 258 kts | 15° |
| 2026-05-06 17:25 | 1.19089 | 103.91059 | 3273 ft | 255 kts | 23° |
| 2026-05-06 17:25 | 1.20695 | 103.91746 | 2957 ft | 246 kts | 24° |
| 2026-05-06 17:25 | 1.22237 | 103.92399 | 2661 ft | 234 kts | 23° |
| 2026-05-06 17:25 | 1.23706 | 103.93020 | 2364 ft | 223 kts | 24° |
| 2026-05-06 17:26 | 1.25056 | 103.93589 | 2093 ft | 203 kts | 24° |
| 2026-05-06 17:26 | 1.26323 | 103.94124 | 1853 ft | 189 kts | 24° |
| 2026-05-06 17:26 | 1.27478 | 103.94611 | 1611 ft | 174 kts | 24° |
| 2026-05-06 17:26 | 1.28539 | 103.95059 | 1375 ft | 158 kts | 24° |
| 2026-05-06 17:27 | 1.29515 | 103.95471 | 1174 ft | 148 kts | 24° |
| 2026-05-06 17:27 | 1.30434 | 103.95859 | 994 ft | 141 kts | 24° |
| 2026-05-06 17:27 | 1.31335 | 103.96240 | 816 ft | 140 kts | 23° |
| 2026-05-06 17:27 | 1.32236 | 103.96614 | 639 ft | 140 kts | 21° |
| 2026-05-06 17:28 | 1.33128 | 103.96995 | 486 ft | 140 kts | 23° |
| 2026-05-06 17:28 | 1.34018 | 103.97384 | 331 ft | 139 kts | 23° |
| 2026-05-06 17:28 | 1.34899 | 103.97756 | 149 ft | 139 kts | 22° |
| 2026-05-06 17:28 | 1.35786 | 103.98127 | 37 ft | 134 kts | 22° |
| 2026-05-06 17:29 | 1.36555 | 103.98447 | 31 ft | 100 kts | 23° |
| 2026-05-06 17:29 | 1.36958 | 103.98620 | 31 ft | 25 kts | 31° |
| 2026-05-06 17:29 | 1.37057 | 103.98714 | 31 ft | 21 kts | 47° |
| 2026-05-06 17:29 | 1.37098 | 103.98806 | 31 ft | 14 kts | 106° |
| 2026-05-06 17:30 | 1.37016 | 103.98854 | 31 ft | 15 kts | 158° |
| 2026-05-06 17:30 | 1.36973 | 103.98897 | 31 ft | 8 kts | 149° |
| 2026-05-06 17:30 | 1.36912 | 103.98888 | 31 ft | 9 kts | 201° |
| 2026-05-06 17:30 | 1.36850 | 103.98864 | 31 ft | 9 kts | 197° |
| 2026-05-06 17:31 | 1.36811 | 103.98871 | 31 ft | 7 kts | 146° |
| 2026-05-06 17:31 | 1.36788 | 103.98919 | 31 ft | 9 kts | 109° |
| 2026-05-06 17:31 | 1.36763 | 103.98981 | 31 ft | 8 kts | 114° |
| 2026-05-06 17:31 | 1.36737 | 103.99038 | 31 ft | 10 kts | 114° |
| 2026-05-06 17:32 | 1.36704 | 103.99105 | 31 ft | 10 kts | 128° |
| 2026-05-06 17:32 | 1.36642 | 103.99122 | 31 ft | 8 kts | 186° |
| 2026-05-06 17:32 | 1.36611 | 103.99088 | 31 ft | 6 kts | 264° |
| 2026-05-06 17:32 | 1.36611 | 103.99078 | 31 ft | 2 kts | 268° |
| 2026-05-06 17:33 | 1.36609 | 103.99058 | 31 ft | 2 kts | 262° |
| 2026-05-06 17:33 | 1.36608 | 103.99051 | 31 ft | 1 kts | 263° |
| 2026-05-06 17:33 | 1.36608 | 103.99049 | 31 ft | 0 kts | 263° |